createdAt,value
2023-11-12T00:01:47.071Z,4.11
2023-11-12T00:04:15.422Z,4.20
2023-11-12T00:06:43.924Z,4.21
2023-11-12T00:09:12.662Z,4.08
2023-11-12T00:11:41.188Z,4.18
2023-11-12T00:14:09.414Z,4.17
2023-11-12T00:16:40.705Z,4.12
2023-11-12T00:19:09.591Z,4.09
2023-11-12T00:21:38.044Z,4.08
2023-11-12T00:24:07.433Z,4.08
2023-11-12T00:26:35.970Z,4.04
2023-11-12T00:29:04.327Z,3.95
2023-11-12T00:31:34.385Z,3.91
2023-11-12T00:34:04.599Z,3.82
2023-11-12T00:36:32.811Z,3.69
2023-11-12T00:39:01.055Z,3.75
2023-11-12T00:41:29.545Z,3.63
2023-11-12T00:43:58.122Z,3.61
2023-11-12T00:46:28.243Z,3.51
2023-11-12T00:48:57.384Z,3.51
2023-11-12T00:51:27.270Z,3.38
2023-11-12T00:53:55.425Z,3.22
2023-11-12T00:56:24.322Z,3.21
2023-11-12T00:58:52.601Z,3.23
2023-11-12T01:01:21.280Z,3.13
2023-11-12T01:03:50.512Z,3.10
2023-11-12T01:06:18.700Z,3.16
2023-11-12T01:08:48.762Z,3.08
2023-11-12T01:11:18.818Z,3.05
2023-11-12T01:13:47.447Z,2.99
2023-11-12T01:16:17.067Z,2.91
2023-11-12T01:18:47.473Z,2.91
2023-11-12T01:21:16.002Z,2.85
2023-11-12T01:23:44.160Z,2.91
2023-11-12T01:26:13.791Z,2.66
2023-11-12T01:28:41.936Z,2.73
2023-11-12T01:31:12.028Z,2.75
2023-11-12T01:33:40.309Z,2.59
2023-11-12T01:36:09.771Z,2.44
2023-11-12T01:38:38.677Z,2.41
2023-11-12T01:41:07.129Z,2.40
2023-11-12T01:43:36.856Z,2.27
2023-11-12T01:46:08.531Z,2.19
2023-11-12T01:48:37.913Z,2.16
2023-11-12T01:51:09.701Z,2.03
2023-11-12T01:53:40.032Z,1.91
2023-11-12T01:56:12.904Z,1.98
2023-11-12T01:58:44.376Z,1.87
2023-11-12T02:01:13.732Z,1.95
2023-11-12T02:03:44.428Z,1.86
2023-11-12T02:06:14.261Z,1.83
2023-11-12T02:08:42.589Z,1.87
2023-11-12T02:11:14.584Z,1.86
2023-11-12T02:13:48.054Z,1.81
2023-11-12T02:16:16.352Z,2.06
2023-11-12T02:18:47.974Z,2.05
2023-11-12T02:21:17.487Z,1.86
2023-11-12T02:23:47.177Z,1.83
2023-11-12T02:26:16.106Z,1.73
2023-11-12T02:28:44.342Z,1.70
2023-11-12T02:31:14.251Z,1.71
2023-11-12T02:33:42.540Z,1.76
2023-11-12T02:36:11.996Z,1.57
2023-11-12T02:38:40.685Z,1.40
2023-11-12T02:41:11.652Z,1.65
2023-11-12T02:43:40.266Z,1.54
2023-11-12T02:46:08.924Z,1.38
2023-11-12T02:49:00.838Z,1.36
2023-11-12T02:51:29.243Z,1.53
2023-11-12T02:53:57.774Z,1.39
2023-11-12T02:56:27.740Z,1.41
2023-11-12T02:58:56.047Z,1.44
2023-11-12T03:01:24.284Z,1.71
2023-11-12T03:03:53.466Z,1.63
2023-11-12T03:06:22.217Z,1.63
2023-11-12T03:08:50.346Z,1.59
2023-11-12T03:11:18.793Z,1.83
2023-11-12T03:13:48.426Z,1.92
2023-11-12T03:16:16.914Z,2.05
2023-11-12T03:18:47.623Z,2.20
2023-11-12T03:21:16.459Z,2.24
2023-11-12T03:23:44.961Z,2.15
2023-11-12T03:26:13.446Z,2.31
2023-11-12T03:28:42.240Z,2.42
2023-11-12T03:31:11.799Z,2.40
2023-11-12T03:33:39.959Z,2.55
2023-11-12T03:36:09.021Z,2.34
2023-11-12T03:38:38.577Z,2.23
2023-11-12T03:41:06.687Z,2.10
2023-11-12T03:43:33.701Z,1.95
2023-11-12T03:46:02.256Z,1.80
2023-11-12T03:48:32.544Z,1.63
2023-11-12T03:51:00.543Z,1.52
2023-11-12T03:53:28.571Z,1.48
2023-11-12T03:55:56.426Z,1.47
2023-11-12T03:58:24.308Z,1.44
2023-11-12T04:00:52.851Z,1.48
2023-11-12T04:03:21.574Z,1.47
2023-11-12T04:05:51.005Z,1.53
2023-11-12T04:08:19.957Z,1.67
2023-11-12T04:10:48.728Z,1.76
2023-11-12T04:13:17.999Z,1.80
2023-11-12T04:15:46.671Z,1.76
2023-11-12T04:18:16.284Z,1.74
2023-11-12T04:20:44.794Z,1.63
2023-11-12T04:23:14.834Z,1.49
2023-11-12T04:25:43.304Z,1.43
2023-11-12T04:28:11.515Z,1.26
2023-11-12T04:30:39.925Z,1.43
2023-11-12T04:33:07.954Z,1.48
2023-11-12T04:35:35.929Z,1.31
2023-11-12T04:38:04.422Z,1.21
2023-11-12T04:40:33.707Z,1.29
2023-11-12T04:43:03.504Z,1.44
2023-11-12T04:45:31.568Z,1.50
2023-11-12T04:47:59.424Z,1.40
2023-11-12T04:50:27.525Z,1.48
2023-11-12T04:52:55.649Z,1.34
2023-11-12T04:55:23.624Z,1.20
2023-11-12T04:57:53.341Z,1.24
2023-11-12T05:00:21.517Z,1.10
2023-11-12T05:02:49.666Z,0.99
2023-11-12T05:05:17.990Z,1.04
2023-11-12T05:07:46.042Z,1.05
2023-11-12T05:10:15.169Z,1.09
2023-11-12T05:12:43.643Z,1.01
2023-11-12T05:15:13.276Z,0.89
2023-11-12T05:17:41.440Z,0.83
2023-11-12T05:20:10.377Z,0.81
2023-11-12T05:22:38.412Z,0.76
2023-11-12T05:25:08.020Z,0.70
2023-11-12T05:27:36.855Z,0.65
2023-11-12T05:30:05.789Z,0.59
2023-11-12T05:32:35.167Z,0.53
2023-11-12T05:35:04.220Z,0.69
2023-11-12T05:37:32.288Z,0.62
2023-11-12T05:40:00.321Z,0.54
2023-11-12T05:42:28.442Z,0.49
2023-11-12T05:44:56.435Z,0.33
2023-11-12T05:47:25.295Z,0.54
2023-11-12T05:49:54.472Z,0.54
2023-11-12T05:52:22.374Z,0.75
2023-11-12T05:54:50.445Z,0.58
2023-11-12T05:57:18.341Z,0.41
2023-11-12T05:59:46.610Z,0.29
2023-11-12T06:02:15.510Z,0.19
2023-11-12T06:04:43.581Z,0.05
2023-11-12T06:07:14.838Z,0.08
2023-11-12T06:09:43.903Z,0.09
2023-11-12T06:12:11.951Z,0.04
2023-11-12T06:14:40.468Z,-0.01
2023-11-12T06:17:08.331Z,-0.04
2023-11-12T06:19:36.228Z,-0.10
2023-11-12T06:22:05.285Z,-0.13
2023-11-12T06:24:34.563Z,-0.14
2023-11-12T06:27:02.739Z,-0.09
2023-11-12T06:29:30.963Z,-0.08
2023-11-12T06:31:58.795Z,0.01
2023-11-12T06:34:26.698Z,0.04
2023-11-12T06:36:54.648Z,0.04
2023-11-12T06:39:22.536Z,0.05
2023-11-12T06:41:51.726Z,0.01
2023-11-12T06:44:19.745Z,0.05
2023-11-12T06:46:48.484Z,0.06
2023-11-12T06:49:17.133Z,0.09
2023-11-12T06:51:45.245Z,0.12
2023-11-12T06:54:13.808Z,0.09
2023-11-12T06:56:42.024Z,0.12
2023-11-12T06:59:11.321Z,0.13
2023-11-12T07:01:40.274Z,0.47
2023-11-12T07:04:12.146Z,0.56
2023-11-12T07:06:40.456Z,0.51
2023-11-12T07:09:09.277Z,0.72
2023-11-12T07:11:37.319Z,0.81
2023-11-12T07:14:06.801Z,0.64
2023-11-12T07:16:38.021Z,0.66
2023-11-12T07:19:06.117Z,0.65
2023-11-12T07:21:35.705Z,0.71
2023-11-12T07:24:03.879Z,0.74
2023-11-12T07:26:31.736Z,0.77
2023-11-12T07:29:00.073Z,0.69
2023-11-12T07:31:28.934Z,0.71
2023-11-12T07:33:58.296Z,0.74
2023-11-12T07:36:26.267Z,0.80
2023-11-12T07:38:54.127Z,0.72
2023-11-12T07:41:23.752Z,0.86
2023-11-12T07:43:51.835Z,0.93
2023-11-12T07:46:19.967Z,1.06
2023-11-12T07:48:47.949Z,1.16
2023-11-12T07:51:17.330Z,1.18
2023-11-12T07:53:45.045Z,1.28
2023-11-12T07:56:12.930Z,1.39
2023-11-12T07:58:40.873Z,1.56
2023-11-12T08:01:08.809Z,1.62
2023-11-12T08:03:36.864Z,1.70
2023-11-12T08:06:05.515Z,1.67
2023-11-12T08:08:35.073Z,1.63
2023-11-12T08:11:02.957Z,1.81
2023-11-12T08:13:30.792Z,1.81
2023-11-12T08:16:00.331Z,1.93
2023-11-12T08:18:28.651Z,2.00
2023-11-12T08:20:58.159Z,2.09
2023-11-12T08:23:26.087Z,2.19
2023-11-12T08:25:55.952Z,2.22
2023-11-12T08:28:25.555Z,2.28
2023-11-12T08:30:53.529Z,2.36
2023-11-12T08:33:21.644Z,2.51
2023-11-12T08:35:49.613Z,2.57
2023-11-12T08:38:17.973Z,2.66
2023-11-12T08:40:46.761Z,2.71
2023-11-12T08:43:16.772Z,2.75
2023-11-12T08:45:44.958Z,2.92
2023-11-12T08:48:13.885Z,2.99
2023-11-12T08:50:42.052Z,3.13
2023-11-12T08:53:10.035Z,3.24
2023-11-12T08:55:38.040Z,3.22
2023-11-12T08:58:06.149Z,3.28
2023-11-12T09:00:35.840Z,3.27
2023-11-12T09:03:04.027Z,3.41
2023-11-12T09:05:36.156Z,3.49
2023-11-12T09:08:04.950Z,3.60
2023-11-12T09:10:34.146Z,3.75
2023-11-12T09:13:02.216Z,3.90
2023-11-12T09:15:30.148Z,4.11
2023-11-12T09:17:59.520Z,4.36
2023-11-12T09:20:27.422Z,4.65
2023-11-12T09:22:55.459Z,4.89
2023-11-12T09:25:23.409Z,5.16
2023-11-12T09:27:51.562Z,5.22
2023-11-12T09:30:19.671Z,5.18
2023-11-12T09:32:47.809Z,5.25
2023-11-12T09:35:17.513Z,5.29
2023-11-12T09:37:45.764Z,5.46
2023-11-12T09:40:14.955Z,5.36
2023-11-12T09:42:49.465Z,5.27
2023-11-12T09:45:20.919Z,5.19
2023-11-12T09:47:59.153Z,5.08
2023-11-12T09:50:29.763Z,5.16
2023-11-12T09:52:58.011Z,5.13
2023-11-12T09:55:26.498Z,5.24
2023-11-12T09:57:55.672Z,5.34
2023-11-12T10:00:24.052Z,5.25
2023-11-12T10:02:53.369Z,5.22
2023-11-12T10:05:22.179Z,5.28
2023-11-12T10:07:51.661Z,5.30
2023-11-12T10:10:23.694Z,5.29
2023-11-12T10:12:53.898Z,5.42
2023-11-12T10:15:26.821Z,5.49
2023-11-12T10:17:57.543Z,5.55
2023-11-12T10:20:29.079Z,5.65
2023-11-12T10:22:59.105Z,5.64
2023-11-12T10:25:44.534Z,5.59
2023-11-12T10:28:15.153Z,5.62
2023-11-12T10:30:44.766Z,5.73
2023-11-12T10:33:18.182Z,5.77
2023-11-12T10:35:47.091Z,5.85
2023-11-12T10:38:18.373Z,6.00
2023-11-12T10:41:03.794Z,6.09
2023-11-12T10:43:33.074Z,6.23
2023-11-12T10:46:04.637Z,6.51
2023-11-12T10:48:35.315Z,6.55
2023-11-12T10:51:07.270Z,6.69
2023-11-12T10:53:38.410Z,6.84
2023-11-12T10:56:07.913Z,6.97
2023-11-12T10:58:36.776Z,6.91
2023-11-12T11:01:08.753Z,6.97
2023-11-12T11:03:37.063Z,6.90
2023-11-12T11:06:07.027Z,6.90
2023-11-12T11:08:36.621Z,6.87
2023-11-12T11:11:10.501Z,6.89
2023-11-12T11:13:40.292Z,6.92
2023-11-12T11:16:10.475Z,6.98
2023-11-12T11:18:50.717Z,6.81
2023-11-12T11:21:19.883Z,6.97
2023-11-12T11:23:53.316Z,6.87
2023-11-12T11:26:34.203Z,6.94
2023-11-12T11:29:19.052Z,6.93
2023-11-12T11:32:19.100Z,6.76
2023-11-12T11:34:49.857Z,6.72
2023-11-12T11:37:20.669Z,6.83
2023-11-12T11:39:50.630Z,6.74
2023-11-12T11:42:19.040Z,6.77
2023-11-12T11:44:51.405Z,6.79
2023-11-12T11:47:24.090Z,6.81
2023-11-12T11:49:53.113Z,6.90
2023-11-12T11:52:23.260Z,7.01
2023-11-12T11:54:58.169Z,7.14
2023-11-12T11:57:28.182Z,7.26
2023-11-12T11:59:57.098Z,7.39
2023-11-12T12:02:25.871Z,7.54
2023-11-12T12:04:55.713Z,7.48
2023-11-12T12:07:25.215Z,7.52
2023-11-12T12:09:59.945Z,7.54
2023-11-12T12:12:29.251Z,7.65
2023-11-12T12:14:57.692Z,7.65
2023-11-12T12:17:26.258Z,7.61
2023-11-12T12:19:55.202Z,7.76
2023-11-12T12:22:27.804Z,7.65
2023-11-12T12:24:59.741Z,7.77
2023-11-12T12:27:28.405Z,7.87
2023-11-12T12:29:59.788Z,8.00
2023-11-12T12:32:29.390Z,7.74
2023-11-12T12:35:01.881Z,7.75
2023-11-12T12:37:32.526Z,7.72
2023-11-12T12:40:05.803Z,7.70
2023-11-12T12:42:35.967Z,7.94
2023-11-12T12:45:05.575Z,8.04
2023-11-12T12:47:35.412Z,8.18
2023-11-12T12:50:17.891Z,8.26
2023-11-12T12:52:48.041Z,8.23
2023-11-12T12:55:18.504Z,8.30
2023-11-12T12:57:51.195Z,8.28
2023-11-12T13:00:23.188Z,8.35
2023-11-12T13:02:53.157Z,8.41
2023-11-12T13:05:23.235Z,8.17
2023-11-12T13:07:53.114Z,8.16
2023-11-12T13:10:27.151Z,8.19
2023-11-12T13:12:57.608Z,8.22
2023-11-12T13:15:26.655Z,8.07
2023-11-12T13:17:55.071Z,7.94
2023-11-12T13:20:26.945Z,7.64
2023-11-12T13:22:56.705Z,7.75
2023-11-12T13:25:26.186Z,7.72
2023-11-12T13:27:56.013Z,7.76
2023-11-12T13:30:24.555Z,7.65
2023-11-12T13:32:53.123Z,7.58
2023-11-12T13:35:21.203Z,7.57
2023-11-12T13:37:49.446Z,7.56
2023-11-12T13:40:17.576Z,7.67
2023-11-12T13:42:47.731Z,7.58
2023-11-12T13:45:15.964Z,7.64
2023-11-12T13:47:44.400Z,7.65
2023-11-12T13:50:14.938Z,7.74
2023-11-12T13:52:44.970Z,7.79
2023-11-12T13:55:19.069Z,7.82
2023-11-12T13:57:49.752Z,7.83
2023-11-12T14:00:18.804Z,7.76
2023-11-12T14:02:47.008Z,7.74
2023-11-12T14:05:18.079Z,7.77
2023-11-12T14:07:46.219Z,7.84
2023-11-12T14:10:16.190Z,7.54
2023-11-12T14:12:45.833Z,7.53
2023-11-12T14:15:19.293Z,7.41
2023-11-12T14:17:48.286Z,7.52
2023-11-12T14:20:23.865Z,7.42
2023-11-12T14:22:52.543Z,7.25
2023-11-12T14:25:21.317Z,7.18
2023-11-12T14:27:51.421Z,7.08
2023-11-12T14:30:21.811Z,6.95
2023-11-12T14:32:52.315Z,6.90
2023-11-12T14:35:23.737Z,6.67
2023-11-12T14:37:51.907Z,6.64
2023-11-12T14:40:20.683Z,6.54
2023-11-12T14:42:48.702Z,6.36
2023-11-12T14:45:25.765Z,6.25
2023-11-12T14:48:00.943Z,6.13
2023-11-12T14:50:28.670Z,6.02
2023-11-12T14:52:58.762Z,5.94
2023-11-12T14:55:27.068Z,5.89
2023-11-12T14:57:56.236Z,5.87
2023-11-12T15:00:29.385Z,5.86
2023-11-12T15:03:00.254Z,5.75
2023-11-12T15:05:30.041Z,5.73
2023-11-12T15:07:58.344Z,5.62
2023-11-12T15:10:27.236Z,5.67
2023-11-12T15:12:55.637Z,5.62
2023-11-12T15:15:24.127Z,5.61
2023-11-12T15:17:54.634Z,5.58
2023-11-12T15:20:24.906Z,5.57
2023-11-12T15:22:55.163Z,5.59
2023-11-12T15:25:23.370Z,5.52
2023-11-12T15:27:52.125Z,5.46
2023-11-12T15:30:21.226Z,5.46
2023-11-12T15:32:50.179Z,5.36
2023-11-12T15:35:19.849Z,5.25
2023-11-12T15:37:50.361Z,5.16
2023-11-12T15:40:21.339Z,5.23
2023-11-12T15:42:51.391Z,5.17
2023-11-12T15:45:20.990Z,5.20
2023-11-12T15:47:50.189Z,5.15
2023-11-12T15:50:19.637Z,5.01
2023-11-12T15:52:49.481Z,5.08
2023-11-12T15:55:18.768Z,5.05
2023-11-12T15:57:47.308Z,5.02
2023-11-12T16:00:18.933Z,5.00
2023-11-12T16:02:48.787Z,4.99
2023-11-12T16:05:18.132Z,4.98
2023-11-12T16:07:49.669Z,4.97
2023-11-12T16:10:19.258Z,4.95
2023-11-12T16:12:47.226Z,4.95
2023-11-12T16:15:16.946Z,4.98
2023-11-12T16:17:47.211Z,4.92
2023-11-12T16:20:16.707Z,4.90
2023-11-12T16:22:46.293Z,4.79
2023-11-12T16:25:14.883Z,4.85
2023-11-12T16:27:44.407Z,4.77
2023-11-12T16:30:13.457Z,4.91
2023-11-12T16:32:42.549Z,4.85
2023-11-12T16:35:12.542Z,4.89
2023-11-12T16:37:48.081Z,4.87
2023-11-12T16:40:17.274Z,4.91
2023-11-12T16:42:49.688Z,4.85
2023-11-12T16:45:19.250Z,4.82
2023-11-12T16:47:47.587Z,4.83
2023-11-12T16:50:18.315Z,4.82
2023-11-12T16:52:46.639Z,4.76
2023-11-12T16:55:14.859Z,4.76
2023-11-12T16:57:44.107Z,4.72
2023-11-12T17:00:14.256Z,4.71
2023-11-12T17:02:42.709Z,4.74
2023-11-12T17:05:11.465Z,4.64
2023-11-12T17:07:39.932Z,4.60
2023-11-12T17:10:10.111Z,4.64
2023-11-12T17:12:38.251Z,4.63
2023-11-12T17:15:10.115Z,4.61
2023-11-12T17:17:40.275Z,4.59
2023-11-12T17:20:12.545Z,4.59
2023-11-12T17:22:41.601Z,4.63
2023-11-12T17:25:13.985Z,4.63
2023-11-12T17:27:42.794Z,4.61
2023-11-12T17:30:12.904Z,4.64
2023-11-12T17:32:42.627Z,4.65
2023-11-12T17:35:12.270Z,4.62
2023-11-12T17:37:40.319Z,4.63
2023-11-12T17:40:10.010Z,4.56
2023-11-12T17:42:38.468Z,4.58
2023-11-12T17:45:07.580Z,4.53
2023-11-12T17:47:36.785Z,4.51
2023-11-12T17:50:08.382Z,4.36
2023-11-12T17:52:36.246Z,4.50
2023-11-12T17:55:04.821Z,4.48
2023-11-12T17:57:32.951Z,4.45
2023-11-12T18:00:01.231Z,4.42
2023-11-12T18:02:29.313Z,4.41
2023-11-12T18:04:57.868Z,4.38
2023-11-12T18:07:28.606Z,4.37
2023-11-12T18:09:57.069Z,4.29
2023-11-12T18:12:25.021Z,4.31
2023-11-12T18:14:54.807Z,4.29
2023-11-12T18:17:22.791Z,4.25
2023-11-12T18:19:50.713Z,4.25
2023-11-12T18:22:18.653Z,4.18
2023-11-12T18:24:49.357Z,4.16
2023-11-12T18:27:17.618Z,4.15
2023-11-12T18:29:45.645Z,4.07
2023-11-12T18:32:14.759Z,4.06
2023-11-12T18:34:47.250Z,4.03
2023-11-12T18:37:15.257Z,4.01
2023-11-12T18:39:43.188Z,3.96
2023-11-12T18:42:12.986Z,4.05
2023-11-12T18:44:41.429Z,4.11
2023-11-12T18:47:14.097Z,4.15
2023-11-12T18:49:44.594Z,4.20
2023-11-12T18:52:15.235Z,4.50
2023-11-12T18:54:44.298Z,4.46
2023-11-12T18:57:13.631Z,4.45
2023-11-12T18:59:42.724Z,4.46
2023-11-12T19:02:10.795Z,4.49
2023-11-12T19:04:38.870Z,4.54
2023-11-12T19:07:09.666Z,4.57
2023-11-12T19:09:37.772Z,4.60
2023-11-12T19:12:06.551Z,4.61
2023-11-12T19:14:36.559Z,4.60
2023-11-12T19:17:05.121Z,4.63
2023-11-12T19:19:34.930Z,4.66
2023-11-12T19:22:03.136Z,4.60
2023-11-12T19:24:33.112Z,4.65
2023-11-12T19:27:01.726Z,4.65
2023-11-12T19:29:30.699Z,4.61
2023-11-12T19:32:02.231Z,4.55
2023-11-12T19:34:33.250Z,4.51
2023-11-12T19:37:03.225Z,4.39
2023-11-12T19:39:34.714Z,4.34
2023-11-12T19:42:02.744Z,4.30
2023-11-12T19:44:32.919Z,4.24
2023-11-12T19:47:02.961Z,4.16
2023-11-12T19:49:31.070Z,4.18
2023-11-12T19:52:02.909Z,4.18
2023-11-12T19:54:31.079Z,4.16
2023-11-12T19:56:59.296Z,4.18
2023-11-12T19:59:27.543Z,4.10
2023-11-12T20:01:56.371Z,4.16
2023-11-12T20:04:26.463Z,4.15
2023-11-12T20:06:56.171Z,4.17
2023-11-12T20:09:24.507Z,4.05
2023-11-12T20:11:52.617Z,4.19
2023-11-12T20:14:21.229Z,4.18
2023-11-12T20:16:49.407Z,4.21
2023-11-12T20:19:20.106Z,4.21
2023-11-12T20:21:49.911Z,4.23
2023-11-12T20:24:17.928Z,4.29
2023-11-12T20:26:46.665Z,4.40
2023-11-12T20:29:15.626Z,4.37
2023-11-12T20:31:44.246Z,4.40
2023-11-12T20:34:13.205Z,4.42
2023-11-12T20:36:41.562Z,4.45
2023-11-12T20:39:17.067Z,4.52
2023-11-12T20:41:45.894Z,4.49
2023-11-12T20:44:14.520Z,4.51
2023-11-12T20:46:45.478Z,4.43
2023-11-12T20:49:17.280Z,4.48
2023-11-12T20:51:47.163Z,4.44
2023-11-12T20:54:18.124Z,4.45
2023-11-12T20:56:46.753Z,4.47
2023-11-12T20:59:15.258Z,4.49
2023-11-12T21:01:43.960Z,4.43
2023-11-12T21:04:13.547Z,4.47
2023-11-12T21:06:42.008Z,4.44
2023-11-12T21:09:10.347Z,4.41
2023-11-12T21:11:48.149Z,4.39
2023-11-12T21:14:17.512Z,4.44
2023-11-12T21:16:46.011Z,4.43
2023-11-12T21:19:14.216Z,4.40
2023-11-12T21:21:42.243Z,4.33
2023-11-12T21:24:11.362Z,4.27
2023-11-12T21:26:41.609Z,4.15
2023-11-12T21:29:10.532Z,4.18
2023-11-12T21:31:39.007Z,4.18
2023-11-12T21:34:07.026Z,4.18
2023-11-12T21:36:35.127Z,4.19
2023-11-12T21:39:09.043Z,4.19
2023-11-12T21:41:37.681Z,4.23
2023-11-12T21:44:09.767Z,4.16
2023-11-12T21:46:38.125Z,4.19
2023-11-12T21:49:06.553Z,4.16
2023-11-12T21:51:34.789Z,4.22
2023-11-12T21:54:03.445Z,4.29
2023-11-12T21:56:31.595Z,4.31
2023-11-12T21:58:59.500Z,4.29
2023-11-12T22:01:28.930Z,4.28
2023-11-12T22:03:57.283Z,4.37
2023-11-12T22:06:26.177Z,4.39
2023-11-12T22:08:54.538Z,4.39
2023-11-12T22:11:22.486Z,4.38
2023-11-12T22:13:51.002Z,4.41
2023-11-12T22:16:18.982Z,4.38
2023-11-12T22:18:48.440Z,4.40
2023-11-12T22:21:17.840Z,4.46
2023-11-12T22:23:45.704Z,4.46
2023-11-12T22:26:13.547Z,4.49
2023-11-12T22:28:41.761Z,4.39
2023-11-12T22:31:10.168Z,4.46
2023-11-12T22:33:38.157Z,4.43
2023-11-12T22:36:08.998Z,4.37
2023-11-12T22:38:37.740Z,4.36
2023-11-12T22:41:05.927Z,4.35
2023-11-12T22:43:33.804Z,4.44
2023-11-12T22:46:01.888Z,4.43
2023-11-12T22:48:29.733Z,4.36
2023-11-12T22:50:57.939Z,4.40
2023-11-12T22:53:28.903Z,4.34
2023-11-12T22:55:57.069Z,4.32
2023-11-12T22:58:25.750Z,4.28
2023-11-12T23:01:00.277Z,4.30
2023-11-12T23:03:30.263Z,4.35
2023-11-12T23:05:58.175Z,4.26
2023-11-12T23:08:27.965Z,4.38
2023-11-12T23:10:57.016Z,4.40
2023-11-12T23:13:25.790Z,4.40
2023-11-12T23:15:56.901Z,4.39
2023-11-12T23:18:24.937Z,4.35
2023-11-12T23:20:59.394Z,4.34
2023-11-12T23:23:35.852Z,4.22
2023-11-12T23:26:05.112Z,4.27
2023-11-12T23:28:33.450Z,4.18
2023-11-12T23:31:03.069Z,4.23
2023-11-12T23:33:32.027Z,4.22
2023-11-12T23:36:00.877Z,4.25
2023-11-12T23:38:29.207Z,4.23
2023-11-12T23:40:58.417Z,4.12
2023-11-12T23:43:26.412Z,4.20
2023-11-12T23:45:54.313Z,4.25
2023-11-12T23:48:22.223Z,4.22
2023-11-12T23:50:50.150Z,4.14
2023-11-12T23:53:18.059Z,4.48
2023-11-12T23:55:45.894Z,4.46
2023-11-12T23:58:15.435Z,4.47
